Time;durP1;ratioP1;P1;durP2;ratioP2;P2;SDS_P1;SDS_P2;PMS_P1;PMS_P2;Temp;Humidity;BMP_temperature;BMP_pressure;BME280_temperature;BME280_humidity;BME280_pressure;Samples;Min_cycle;Max_cycle;Signal;HPM_P1;HPM_P2
2023/06/23 00:00:00;;;;;;;6.95;3.63;;;;;;;20.72;100.00;99388.63;338180;28;16438;-71
2023/06/23 00:00:14;;;;;;;6.97;3.60;;;;;;;20.67;100.00;99382.91;336740;28;17324;-73
2023/06/23 00:00:28;;;;;;;5.13;3.47;;;;;;;20.73;100.00;99373.66;338282;28;5178;-72
2023/06/23 00:00:40;;;;;;;5.15;3.33;;;;;;;20.64;100.00;99380.47;341071;28;4714;-74
2023/06/23 00:00:52;;;;;;;4.93;3.25;;;;;;;20.59;100.00;99387.94;337291;28;18157;-75
2023/06/23 00:01:05;;;;;;;5.20;3.50;;;;;;;20.60;100.00;99381.69;339354;28;4687;-74
2023/06/23 00:01:20;;;;;;;4.93;3.50;;;;;;;20.54;100.00;99384.78;336394;28;18223;-74
2023/06/23 00:01:32;;;;;;;5.03;3.63;;;;;;;20.66;100.00;99388.28;335597;28;17798;-71
2023/06/23 00:01:45;;;;;;;5.88;3.80;;;;;;;20.69;100.00;99388.91;338307;28;4627;-72
2023/06/23 00:01:57;;;;;;;6.10;3.63;;;;;;;20.65;100.00;99384.00;336969;28;18352;-74
2023/06/23 00:02:09;;;;;;;5.70;3.60;;;;;;;20.56;100.00;99382.84;339487;28;4595;-73
2023/06/23 00:02:22;;;;;;;6.18;3.60;;;;;;;20.57;100.00;99384.56;338050;28;11587;-72
2023/06/23 00:02:35;;;;;;;4.57;3.30;;;;;;;20.65;100.00;99387.47;339132;28;4834;-71
2023/06/23 00:02:47;;;;;;;3.50;3.00;;;;;;;20.66;100.00;99389.13;338135;28;19528;-73
2023/06/23 00:02:59;;;;;;;4.60;3.17;;;;;;;20.70;100.00;99385.28;340695;28;5302;-73
2023/06/23 00:03:11;;;;;;;5.45;3.60;;;;;;;20.74;100.00;99384.09;338420;28;17673;-72
2023/06/23 00:03:23;;;;;;;7.10;4.10;;;;;;;20.76;100.00;99383.97;340812;28;4575;-70
2023/06/23 00:03:35;;;;;;;5.55;3.70;;;;;;;20.84;100.00;99383.34;339865;28;4664;-70
2023/06/23 00:03:48;;;;;;;4.65;3.40;;;;;;;20.85;100.00;99387.69;337277;28;19072;-73
2023/06/23 00:04:00;;;;;;;4.00;3.33;;;;;;;20.88;100.00;99382.16;339755;28;4633;-72
2023/06/23 00:04:12;;;;;;;4.00;3.58;;;;;;;20.91;100.00;99387.19;336909;28;20522;-72
2023/06/23 00:04:24;;;;;;;4.07;3.50;;;;;;;20.90;100.00;99390.78;341686;28;5623;-72
2023/06/23 00:04:36;;;;;;;4.60;3.25;;;;;;;20.89;100.00;99389.13;337008;28;11899;-71
2023/06/23 00:04:48;;;;;;;4.43;3.20;;;;;;;20.90;100.00;99386.34;341074;28;4571;-71
2023/06/23 00:05:00;;;;;;;4.68;3.40;;;;;;;20.92;100.00;99388.88;330557;28;4829;-73
2023/06/23 00:05:12;;;;;;;4.07;3.40;;;;;;;20.92;100.00;99388.88;338422;28;18147;-72
2023/06/23 00:05:25;;;;;;;3.92;3.28;;;;;;;20.90;100.00;99391.63;341445;28;4703;-71
2023/06/23 00:05:37;;;;;;;4.07;3.33;;;;;;;20.89;100.00;99389.97;338225;28;18106;-72
2023/06/23 00:05:49;;;;;;;4.25;3.30;;;;;;;20.86;100.00;99399.94;340159;28;5318;-72
2023/06/23 00:06:03;;;;;;;4.00;3.40;;;;;;;20.85;100.00;99395.63;337114;28;18020;-72
2023/06/23 00:06:16;;;;;;;4.18;3.53;;;;;;;20.78;100.00;99391.78;340799;28;8405;-72
2023/06/23 00:06:28;;;;;;;4.10;3.50;;;;;;;20.70;100.00;99389.72;339990;28;18273;-72
2023/06/23 00:06:42;;;;;;;4.15;3.47;;;;;;;20.73;100.00;99400.06;341164;28;4531;-75
2023/06/23 00:06:54;;;;;;;3.97;3.33;;;;;;;20.74;100.00;99386.75;337555;28;16244;-73
2023/06/23 00:07:06;;;;;;;3.97;3.08;;;;;;;20.81;100.00;99402.09;336568;28;16703;-73
2023/06/23 00:07:19;;;;;;;3.83;3.08;;;;;;;20.77;100.00;99404.16;340078;28;5318;-74
2023/06/23 00:07:31;;;;;;;3.65;3.03;;;;;;;20.81;100.00;99402.09;341804;28;12323;-73
2023/06/23 00:07:43;;;;;;;4.45;3.25;;;;;;;20.81;100.00;99392.38;339685;28;18314;-71
2023/06/23 00:07:58;;;;;;;4.65;3.28;;;;;;;20.87;100.00;99394.53;340686;28;4538;-71
2023/06/23 00:08:10;;;;;;;4.20;3.30;;;;;;;20.86;100.00;99389.34;337771;28;17993;-72
2023/06/23 00:08:22;;;;;;;3.40;3.10;;;;;;;20.78;100.00;99404.97;338384;28;18014;-75
2023/06/23 00:08:40;;;;;;;4.35;3.20;;;;;;;20.80;100.00;99395.97;339293;28;5184;-73
2023/06/23 00:08:52;;;;;;;7.10;3.40;;;;;;;20.81;100.00;99397.66;338734;28;17819;-72
2023/06/23 00:09:13;;;;;;;6.40;3.28;;;;;;;20.79;100.00;99393.47;341609;28;5457;-73
2023/06/23 00:09:25;;;;;;;4.15;3.20;;;;;;;20.73;100.00;99395.63;338372;28;17739;-71
2023/06/23 00:09:37;;;;;;;4.30;3.45;;;;;;;20.75;100.00;99398.97;339280;28;18033;-71
2023/06/23 00:09:49;;;;;;;4.10;3.50;;;;;;;20.78;100.00;99402.34;342307;28;5517;-72
2023/06/23 00:10:06;;;;;;;3.87;3.43;;;;;;;20.72;100.00;99399.19;338703;28;17004;-71
2023/06/23 00:10:18;;;;;;;5.68;3.45;;;;;;;20.79;100.00;99394.28;336264;28;17908;-72
2023/06/23 00:10:31;;;;;;;6.38;3.50;;;;;;;20.82;100.00;99398.50;340127;28;4715;-72
2023/06/23 00:10:45;;;;;;;4.82;3.50;;;;;;;20.80;100.00;99401.25;338029;28;18444;-73
2023/06/23 00:10:57;;;;;;;5.43;3.45;;;;;;;20.83;100.00;99400.19;337187;28;18161;-75
2023/06/23 00:11:10;;;;;;;5.38;3.60;;;;;;;20.73;100.00;99400.91;340017;28;4586;-74
2023/06/23 00:11:22;;;;;;;5.25;3.70;;;;;;;20.75;100.00;99393.69;335762;28;18134;-71
2023/06/23 00:11:34;;;;;;;4.32;3.45;;;;;;;20.80;100.00;99395.97;339786;28;4521;-72
2023/06/23 00:11:46;;;;;;;4.30;3.15;;;;;;;20.83;100.00;99402.81;337257;28;18479;-72
2023/06/23 00:11:58;;;;;;;4.28;3.10;;;;;;;20.80;100.00;99403.06;339478;28;5034;-74
2023/06/23 00:12:10;;;;;;;4.00;3.13;;;;;;;20.81;100.00;99402.09;339774;28;4581;-72
2023/06/23 00:12:24;;;;;;;3.92;3.40;;;;;;;20.83;100.00;99400.19;337797;28;18377;-73
2023/06/23 00:12:41;;;;;;;5.60;3.60;;;;;;;20.79;100.00;99404.03;340357;28;4732;-73
2023/06/23 00:12:53;;;;;;;5.95;3.40;;;;;;;20.72;100.00;99404.47;338079;28;17180;-72
2023/06/23 00:13:05;;;;;;;5.10;3.47;;;;;;;20.58;100.00;99402.06;339401;28;4606;-75
2023/06/23 00:13:18;;;;;;;5.78;3.58;;;;;;;20.62;100.00;99405.34;336766;28;19102;-74
2023/06/23 00:13:34;;;;;;;5.22;3.30;;;;;;;20.65;100.00;99403.31;340996;28;4687;-72
2023/06/23 00:13:46;;;;;;;4.68;3.20;;;;;;;20.64;100.00;99406.88;337351;28;17829;-73
2023/06/23 00:13:58;;;;;;;4.20;3.40;;;;;;;20.66;100.00;99410.25;341251;28;5259;-73
2023/06/23 00:14:11;;;;;;;3.75;3.28;;;;;;;20.70;100.00;99405.56;339870;28;4711;-73
2023/06/23 00:14:23;;;;;;;3.70;3.13;;;;;;;20.71;100.00;99402.81;336997;28;18285;-71
2023/06/23 00:14:35;;;;;;;4.55;3.20;;;;;;;20.73;100.00;99411.47;339943;28;4484;-72
2023/06/23 00:14:47;;;;;;;5.13;3.20;;;;;;;20.73;100.00;99411.47;338697;28;17734;-74
2023/06/23 00:14:59;;;;;;;5.18;3.40;;;;;;;20.75;100.00;99417.47;341073;28;4708;-73
2023/06/23 00:15:13;;;;;;;3.88;3.30;;;;;;;20.74;100.00;99407.88;336787;28;10809;-73
2023/06/23 00:15:25;;;;;;;3.95;3.33;;;;;;;20.74;100.00;99417.56;340737;28;5211;-74
2023/06/23 00:15:37;;;;;;;3.90;3.33;;;;;;;20.78;100.00;99405.81;337078;28;18201;-72
2023/06/23 00:15:53;;;;;;;3.90;3.30;;;;;;;20.80;100.00;99405.69;338603;28;4662;-72
2023/06/23 00:16:06;;;;;;;4.25;3.30;;;;;;;20.77;100.00;99411.25;335830;28;17842;-74
2023/06/23 00:16:18;;;;;;;4.75;3.50;;;;;;;20.71;100.00;99408.09;337277;28;18259;-73
2023/06/23 00:16:30;;;;;;;4.60;3.40;;;;;;;20.64;100.00;99417.44;338498;28;5149;-74
2023/06/23 00:16:44;;;;;;;4.20;3.25;;;;;;;20.60;100.00;99413.38;336204;28;18431;-72
2023/06/23 00:16:57;;;;;;;4.68;3.28;;;;;;;20.68;100.00;99418.91;335471;28;5113;-72
2023/06/23 00:17:09;;;;;;;4.75;3.28;;;;;;;20.69;100.00;99414.47;337225;28;5218;-73
2023/06/23 00:17:21;;;;;;;4.85;3.33;;;;;;;20.78;100.00;99416.38;336758;28;4789;-72
2023/06/23 00:17:34;;;;;;;6.43;3.33;;;;;;;20.82;100.00;99409.06;338752;28;4551;-73
2023/06/23 00:17:47;;;;;;;7.38;3.50;;;;;;;20.80;100.00;99410.97;338472;28;12129;-73
2023/06/23 00:18:00;;;;;;;5.05;3.58;;;;;;;20.78;100.00;99412.91;337448;28;17126;-73
2023/06/23 00:18:12;;;;;;;4.63;3.67;;;;;;;20.80;100.00;99425.03;337080;28;16789;-75
2023/06/23 00:18:24;;;;;;;4.38;3.70;;;;;;;20.80;100.00;99411.81;340269;28;4822;-73
2023/06/23 00:18:41;;;;;;;4.38;3.60;;;;;;;20.84;100.00;99415.88;337863;28;6380;-71
2023/06/23 00:18:53;;;;;;;4.18;3.50;;;;;;;20.73;100.00;99419.38;338716;28;18044;-73
2023/06/23 00:19:07;;;;;;;4.32;3.60;;;;;;;20.71;100.00;99418.66;337978;28;18409;-73
2023/06/23 00:19:19;;;;;;;3.90;3.40;;;;;;;20.75;100.00;99412.19;340561;28;4662;-70
2023/06/23 00:19:31;;;;;;;4.57;3.40;;;;;;;20.77;100.00;99417.34;336270;28;16355;-72
2023/06/23 00:19:43;;;;;;;5.63;3.50;;;;;;;20.72;100.00;99424.78;340531;28;4445;-75
2023/06/23 00:19:56;;;;;;;6.30;3.50;;;;;;;20.73;100.00;99419.38;339937;28;4962;-73
2023/06/23 00:20:14;;;;;;;4.38;3.30;;;;;;;20.79;100.00;99419.88;336665;28;18732;-71
2023/06/23 00:20:27;;;;;;;4.75;3.30;;;;;;;20.80;100.00;99422.38;336164;28;17843;-73
2023/06/23 00:20:39;;;;;;;6.00;3.40;;;;;;;20.82;100.00;99422.25;330522;28;4637;-72
2023/06/23 00:20:54;;;;;;;4.93;3.20;;;;;;;20.85;100.00;99414.13;337403;28;4776;-72
2023/06/23 00:21:10;;;;;;;3.50;3.00;;;;;;;20.84;100.00;99425.63;335695;28;18792;-72
2023/06/23 00:21:22;;;;;;;4.72;3.28;;;;;;;20.86;100.00;99423.69;335964;28;18811;-73
2023/06/23 00:21:34;;;;;;;4.85;3.17;;;;;;;20.80;100.00;99422.38;330541;28;4546;-73
2023/06/23 00:21:46;;;;;;;6.35;3.50;;;;;;;20.81;100.00;99420.59;336615;28;5139;-71
2023/06/23 00:21:58;;;;;;;5.07;3.42;;;;;;;20.81;100.00;99433.81;335001;28;17239;-73
2023/06/23 00:22:10;;;;;;;4.72;3.53;;;;;;;20.79;100.00;99435.72;336108;28;5023;-73
2023/06/23 00:22:22;;;;;;;4.30;3.40;;;;;;;20.74;100.00;99439.56;336687;28;19006;-75
2023/06/23 00:22:34;;;;;;;4.70;3.38;;;;;;;20.79;100.00;99425.16;339471;28;4540;-71
2023/06/23 00:22:47;;;;;;;5.00;3.33;;;;;;;20.80;100.00;99425.03;334173;28;11682;-73
2023/06/23 00:22:59;;;;;;;4.43;3.10;;;;;;;20.75;100.00;99430.69;334471;28;18055;-72
2023/06/23 00:23:11;;;;;;;4.00;3.03;;;;;;;20.74;100.00;99422.84;336102;28;11867;-71
2023/06/23 00:23:23;;;;;;;4.75;3.33;;;;;;;20.75;100.00;99430.69;338835;28;6034;-72
2023/06/23 00:23:36;;;;;;;5.88;3.58;;;;;;;20.72;100.00;99430.91;339330;28;5034;-72
2023/06/23 00:23:48;;;;;;;7.00;3.95;;;;;;;20.73;100.00;99435.22;335551;28;18222;-72
2023/06/23 00:24:00;;;;;;;6.50;3.90;;;;;;;20.63;100.00;99439.56;337998;28;5256;-76
2023/06/23 00:24:12;;;;;;;5.57;3.70;;;;;;;20.69;100.00;99432.97;336542;28;18259;-73
2023/06/23 00:24:24;;;;;;;4.40;3.53;;;;;;;20.69;100.00;99428.50;340057;28;4476;-73
2023/06/23 00:24:36;;;;;;;4.35;3.40;;;;;;;20.72;100.00;99430.06;339284;28;4534;-73
2023/06/23 00:24:48;;;;;;;8.73;3.38;;;;;;;20.69;100.00;99431.16;336255;28;18114;-71
2023/06/23 00:25:00;;;;;;;9.60;3.45;;;;;;;20.73;100.00;99437.03;339487;28;5524;-73
2023/06/23 00:25:12;;;;;;;7.05;3.55;;;;;;;20.74;100.00;99430.78;335737;28;18064;-73
2023/06/23 00:25:24;;;;;;;6.22;3.47;;;;;;;20.77;100.00;99432.38;339638;28;4678;-71
2023/06/23 00:25:37;;;;;;;5.43;3.50;;;;;;;20.75;100.00;99433.31;336350;28;16175;-73
2023/06/23 00:25:49;;;;;;;3.75;3.35;;;;;;;20.75;100.00;99432.47;339316;28;5370;-72
2023/06/23 00:26:03;;;;;;;3.90;3.30;;;;;;;20.77;100.00;99429.72;341594;28;4755;-68
2023/06/23 00:26:16;;;;;;;4.35;3.45;;;;;;;20.80;100.00;99426.81;340021;28;17962;-69
2023/06/23 00:26:29;;;;;;;4.07;3.30;;;;;;;20.78;100.00;99434.88;338611;28;17130;-70
2023/06/23 00:26:41;;;;;;;5.70;3.55;;;;;;;20.78;100.00;99445.44;339731;28;4496;-70
2023/06/23 00:26:53;;;;;;;6.47;3.70;;;;;;;20.73;100.00;99443.16;339565;28;19341;-72
2023/06/23 00:27:04;;;;;;;5.93;3.50;;;;;;;20.68;100.00;99433.91;341877;28;4972;-71
2023/06/23 00:27:16;;;;;;;5.05;3.40;;;;;;;20.73;100.00;99434.41;338455;28;12229;-74
2023/06/23 00:27:29;;;;;;;4.90;3.20;;;;;;;20.71;100.00;99439.78;342566;28;4775;-73
2023/06/23 00:27:45;;;;;;;5.72;3.20;;;;;;;20.66;100.00;99441.94;341854;28;5433;-73
2023/06/23 00:27:57;;;;;;;6.40;3.28;;;;;;;20.52;100.00;99440.38;337202;28;18445;-73
2023/06/23 00:28:09;;;;;;;5.30;3.30;;;;;;;20.48;100.00;99438.06;338146;28;19125;-74
2023/06/23 00:28:21;;;;;;;4.90;3.10;;;;;;;20.49;100.00;99429.19;337512;28;12109;-72
2023/06/23 00:28:34;;;;;;;3.50;3.20;;;;;;;20.50;100.00;99436.16;341574;28;5235;-74
2023/06/23 00:28:46;;;;;;;3.72;3.30;;;;;;;20.49;100.00;99445.88;337357;28;12667;-74
2023/06/23 00:28:58;;;;;;;4.72;3.50;;;;;;;20.45;100.00;99444.44;339935;28;4593;-73
2023/06/23 00:29:11;;;;;;;5.13;3.50;;;;;;;20.34;100.00;99445.25;340195;28;5160;-74
2023/06/23 00:29:23;;;;;;;5.10;3.35;;;;;;;20.37;100.00;99438.91;337212;28;17840;-73
2023/06/23 00:29:35;;;;;;;4.32;3.38;;;;;;;20.35;100.00;99436.38;339181;28;4577;-73
2023/06/23 00:29:47;;;;;;;4.30;3.58;;;;;;;20.36;100.00;99439.84;337246;28;18043;-73
2023/06/23 00:29:59;;;;;;;4.82;3.90;;;;;;;20.39;100.00;99444.06;340551;28;5068;-74
2023/06/23 00:30:12;;;;;;;4.68;3.88;;;;;;;20.28;100.00;99443.09;339818;28;4535;-71
2023/06/23 00:30:24;;;;;;;4.70;3.50;;;;;;;20.32;100.00;99444.53;339164;28;18176;-73
2023/06/23 00:30:36;;;;;;;5.43;3.50;;;;;;;20.33;100.00;99443.56;341151;28;5391;-73
2023/06/23 00:30:49;;;;;;;6.18;3.70;;;;;;;20.37;100.00;99448.63;337950;28;18158;-73
2023/06/23 00:31:04;;;;;;;5.88;3.85;;;;;;;20.24;100.00;99446.94;339371;28;10749;-73
2023/06/23 00:31:18;;;;;;;5.13;3.80;;;;;;;20.20;100.00;99450.72;341529;28;18637;-75
2023/06/23 00:31:31;;;;;;;4.70;3.53;;;;;;;20.21;100.00;99444.50;334658;28;18134;-73
2023/06/23 00:31:45;;;;;;;4.63;3.50;;;;;;;20.25;100.00;99453.03;334421;28;16644;-73
2023/06/23 00:31:57;;;;;;;5.32;3.35;;;;;;;20.27;100.00;99449.31;333802;28;17904;-75
2023/06/23 00:32:09;;;;;;;5.72;3.28;;;;;;;20.34;100.00;99447.91;340628;28;4638;-75
2023/06/23 00:32:21;;;;;;;4.70;3.30;;;;;;;20.40;100.00;99445.72;340453;28;4618;-74
2023/06/23 00:32:34;;;;;;;4.10;3.40;;;;;;;20.43;100.00;99450.78;337271;28;18014;-73
2023/06/23 00:32:46;;;;;;;4.13;3.50;;;;;;;20.44;100.00;99447.19;340282;28;4645;-73
2023/06/23 00:32:58;;;;;;;5.63;3.63;;;;;;;20.48;100.00;99448.63;339697;28;17988;-74
2023/06/23 00:33:11;;;;;;;7.55;3.65;;;;;;;20.51;100.00;99448.41;342319;28;4586;-74
2023/06/23 00:33:23;;;;;;;7.10;3.80;;;;;;;20.47;100.00;99447.78;339908;28;17824;-74
2023/06/23 00:33:35;;;;;;;5.72;4.10;;;;;;;20.49;100.00;99445.88;344124;28;5173;-74
2023/06/23 00:33:47;;;;;;;5.55;4.00;;;;;;;20.50;100.00;99447.56;339184;28;18439;-73
2023/06/23 00:34:00;;;;;;;6.55;4.15;;;;;;;20.55;100.00;99450.69;341421;28;4536;-74
2023/06/23 00:34:12;;;;;;;5.78;3.55;;;;;;;20.58;100.00;99448.75;339552;28;11839;-74
2023/06/23 00:34:24;;;;;;;4.45;3.35;;;;;;;20.62;100.00;99451.06;341203;28;4594;-74
2023/06/23 00:34:35;;;;;;;5.35;3.38;;;;;;;20.59;100.00;99453.13;340710;28;4681;-74
2023/06/23 00:34:47;;;;;;;6.65;3.42;;;;;;;20.64;100.00;99453.59;337164;28;18424;-74
2023/06/23 00:35:00;;;;;;;6.38;3.50;;;;;;;20.63;100.00;99452.75;339214;28;4543;-74
2023/06/23 00:35:15;;;;;;;4.90;3.42;;;;;;;20.68;100.00;99452.41;336612;28;11615;-74
2023/06/23 00:35:27;;;;;;;4.97;3.42;;;;;;;20.68;100.00;99450.59;338483;28;11608;-74
2023/06/23 00:35:39;;;;;;;4.80;3.50;;;;;;;20.74;100.00;99450.13;339171;28;4762;-73
2023/06/23 00:35:51;;;;;;;4.05;3.40;;;;;;;20.74;100.00;99455.41;339886;28;5416;-73
2023/06/23 00:36:04;;;;;;;4.45;3.20;;;;;;;20.75;100.00;99450.97;338247;28;18182;-73
2023/06/23 00:36:16;;;;;;;4.65;3.35;;;;;;;20.69;100.00;99452.28;340269;28;4616;-74
2023/06/23 00:36:30;;;;;;;5.60;3.40;;;;;;;20.71;100.00;99449.53;338279;28;17027;-74
2023/06/23 00:36:42;;;;;;;6.05;3.60;;;;;;;20.75;100.00;99453.63;339076;28;15970;-74
2023/06/23 00:36:54;;;;;;;5.07;3.72;;;;;;;20.63;100.00;99451.94;342740;28;4559;-73
2023/06/23 00:37:06;;;;;;;5.60;3.95;;;;;;;20.69;100.00;99452.28;340469;28;12538;-73
2023/06/23 00:37:18;;;;;;;4.90;3.80;;;;;;;20.73;100.00;99453.72;340875;28;17249;-73
2023/06/23 00:37:31;;;;;;;4.60;3.55;;;;;;;20.78;100.00;99460.44;342317;28;5265;-73
2023/06/23 00:37:43;;;;;;;4.80;3.47;;;;;;;20.79;100.00;99451.56;339693;28;17569;-73
2023/06/23 00:37:56;;;;;;;4.63;3.42;;;;;;;20.79;100.00;99456.88;340247;28;4530;-73
2023/06/23 00:38:08;;;;;;;4.05;3.17;;;;;;;20.73;100.00;99453.72;338772;28;18326;-74
2023/06/23 00:38:20;;;;;;;3.80;3.00;;;;;;;20.78;100.00;99455.16;341016;28;4575;-73
2023/06/23 00:38:33;;;;;;;4.03;3.17;;;;;;;20.79;100.00;99456.88;337152;28;18301;-74
2023/06/23 00:38:46;;;;;;;4.88;3.35;;;;;;;20.79;100.00;99460.34;338808;28;4664;-74
2023/06/23 00:38:58;;;;;;;5.57;3.47;;;;;;;20.81;100.00;99455.78;337599;28;18369;-73
2023/06/23 00:39:10;;;;;;;5.28;3.58;;;;;;;20.85;100.00;99459.03;338875;28;6235;-73
2023/06/23 00:39:22;;;;;;;4.63;3.58;;;;;;;20.88;100.00;99459.59;337759;28;10736;-74
2023/06/23 00:39:34;;;;;;;4.18;3.40;;;;;;;20.89;100.00;99460.47;340287;28;4752;-75
2023/06/23 00:39:46;;;;;;;3.97;3.33;;;;;;;20.83;100.00;99463.59;338876;28;4704;-74
2023/06/23 00:39:58;;;;;;;5.15;3.30;;;;;;;20.82;100.00;99467.16;337895;28;4740;-74
2023/06/23 00:40:11;;;;;;;6.70;3.35;;;;;;;20.83;100.00;99464.41;339099;28;5323;-74
2023/06/23 00:40:24;;;;;;;6.18;3.20;;;;;;;20.78;100.00;99461.28;335934;28;18268;-74
2023/06/23 00:40:36;;;;;;;5.78;3.05;;;;;;;20.84;100.00;99467.91;338195;28;4555;-74
2023/06/23 00:40:48;;;;;;;5.55;3.20;;;;;;;20.83;100.00;99471.50;335446;28;18009;-73
2023/06/23 00:41:01;;;;;;;5.72;3.30;;;;;;;20.82;100.00;99462.72;339503;28;5291;-73
2023/06/23 00:41:13;;;;;;;4.43;3.22;;;;;;;20.84;100.00;99465.25;336471;28;18132;-73
2023/06/23 00:41:27;;;;;;;3.60;3.10;;;;;;;20.87;100.00;99470.31;339399;28;4515;-73
2023/06/23 00:41:39;;;;;;;3.80;3.10;;;;;;;20.87;100.00;99463.22;337107;28;19070;-73
2023/06/23 00:41:51;;;;;;;3.50;3.10;;;;;;;20.83;100.00;99468.88;340694;28;5222;-74
2023/06/23 00:42:06;;;;;;;3.63;3.13;;;;;;;20.79;100.00;99462.16;338586;28;18137;-72
2023/06/23 00:42:18;;;;;;;4.15;3.03;;;;;;;20.81;100.00;99476.06;336930;28;19569;-73
2023/06/23 00:42:41;;;;;;;4.72;2.80;;;;;;;20.77;100.00;99475.47;339739;28;4510;-73
2023/06/23 00:42:53;;;;;;;4.05;2.72;;;;;;;20.75;100.00;99466.81;337352;28;17143;-74
2023/06/23 00:43:07;;;;;;;3.65;3.00;;;;;;;20.79;100.00;99473.53;338030;28;4864;-74
2023/06/23 00:43:19;;;;;;;3.78;3.05;;;;;;;20.81;100.00;99476.91;340908;28;4582;-74
2023/06/23 00:43:31;;;;;;;4.30;2.90;;;;;;;20.83;100.00;99471.50;340578;28;5200;-74
2023/06/23 00:43:49;;;;;;;4.72;2.92;;;;;;;20.71;100.00;99474.13;336596;28;18238;-75
2023/06/23 00:44:02;;;;;;;3.85;2.90;;;;;;;20.70;100.00;99469.78;340762;28;17585;-74
2023/06/23 00:44:16;;;;;;;3.50;2.85;;;;;;;20.78;100.00;99473.66;336411;28;18056;-73
2023/06/23 00:44:28;;;;;;;3.03;2.63;;;;;;;20.82;100.00;99472.47;338423;28;17344;-73
2023/06/23 00:44:41;;;;;;;3.05;2.60;;;;;;;20.81;100.00;99481.34;340590;28;4790;-71
2023/06/23 00:44:55;;;;;;;3.00;2.55;;;;;;;20.77;100.00;99474.63;338779;28;18178;-73
2023/06/23 00:45:07;;;;;;;3.50;2.80;;;;;;;20.78;100.00;99484.22;338199;28;10715;-75
2023/06/23 00:45:22;;;;;;;4.22;2.80;;;;;;;20.79;100.00;99476.19;342817;28;5438;-73
2023/06/23 00:45:34;;;;;;;4.22;2.45;;;;;;;20.80;100.00;99474.38;338539;28;18442;-73
2023/06/23 00:45:48;;;;;;;3.85;2.40;;;;;;;20.75;100.00;99475.56;340852;28;4547;-74
2023/06/23 00:46:16;;;;;;;3.67;2.50;;;;;;;20.65;100.00;99484.34;339876;28;18191;-73
2023/06/23 00:46:29;;;;;;;4.68;2.45;;;;;;;20.61;100.00;99489.00;337083;28;16546;-73
2023/06/23 00:46:43;;;;;;;4.00;2.45;;;;;;;20.64;100.00;99486.13;339939;28;4667;-74
2023/06/23 00:46:56;;;;;;;4.05;2.47;;;;;;;20.59;100.00;99480.38;339087;28;17798;-73
2023/06/23 00:47:08;;;;;;;4.65;2.70;;;;;;;20.63;100.00;99492.38;338080;28;18045;-73
2023/06/23 00:47:20;;;;;;;3.95;2.75;;;;;;;20.52;100.00;99497.59;341372;28;4677;-74
2023/06/23 00:47:33;;;;;;;3.28;2.60;;;;;;;20.54;100.00;99485.13;338537;28;18329;-73
2023/06/23 00:47:45;;;;;;;3.65;2.30;;;;;;;20.54;100.00;99479.84;340731;28;5093;-74
2023/06/23 00:47:57;;;;;;;4.80;2.47;;;;;;;20.54;100.00;99485.13;338531;28;17911;-74
2023/06/23 00:48:14;;;;;;;6.72;2.60;;;;;;;20.59;100.00;99485.66;339008;28;5162;-74
2023/06/23 00:48:26;;;;;;;5.53;2.63;;;;;;;20.59;100.00;99493.56;337466;28;17911;-74
2023/06/23 00:48:41;;;;;;;3.85;2.50;;;;;;;20.51;100.00;99488.00;336766;28;18326;-76
2023/06/23 00:48:54;;;;;;;3.03;2.25;;;;;;;20.51;100.00;99485.38;337100;28;18088;-71
2023/06/23 00:49:06;;;;;;;2.75;2.22;;;;;;;20.46;100.00;99487.50;339298;28;6553;-73
2023/06/23 00:49:18;;;;;;;2.70;2.30;;;;;;;20.49;100.00;99492.56;337418;28;17509;-70
2023/06/23 00:49:30;;;;;;;3.83;2.55;;;;;;;20.53;100.00;99494.00;340440;28;5121;-72
2023/06/23 00:49:44;;;;;;;3.70;2.58;;;;;;;20.57;100.00;99497.28;338464;28;18566;-73
2023/06/23 00:49:58;;;;;;;4.47;2.40;;;;;;;20.46;100.00;99493.63;340463;28;7553;-73
2023/06/23 00:50:18;;;;;;;4.88;2.35;;;;;;;20.49;100.00;99497.84;336928;28;17507;-73
2023/06/23 00:50:30;;;;;;;4.40;2.33;;;;;;;20.44;100.00;99494.69;336693;28;17569;-73
2023/06/23 00:50:43;;;;;;;4.47;2.42;;;;;;;20.42;100.00;99497.44;335482;28;16088;-74
2023/06/23 00:50:56;;;;;;;4.40;2.60;;;;;;;20.44;100.00;99494.69;340248;28;5056;-73
2023/06/23 00:51:08;;;;;;;3.60;2.40;;;;;;;20.48;100.00;99501.44;335738;28;18267;-73
2023/06/23 00:51:23;;;;;;;4.25;2.35;;;;;;;20.51;100.00;99495.94;339099;28;5244;-71
2023/06/23 00:51:36;;;;;;;3.97;2.40;;;;;;;20.52;100.00;99497.59;336281;28;17235;-71
2023/06/23 00:51:48;;;;;;;2.70;2.30;;;;;;;20.53;100.00;99499.28;337177;28;17693;-73
2023/06/23 00:52:02;;;;;;;3.20;2.10;;;;;;;20.31;100.00;99500.91;339358;28;4582;-77
2023/06/23 00:52:16;;;;;;;3.05;2.10;;;;;;;20.32;100.00;99497.34;335810;28;17947;-73
2023/06/23 00:52:28;;;;;;;4.47;2.17;;;;;;;20.32;100.00;99499.09;338832;28;18308;-74
2023/06/23 00:52:49;;;;;;;4.00;2.13;;;;;;;20.28;100.00;99503.81;339983;28;4646;-74
2023/06/23 00:53:02;;;;;;;3.13;2.10;;;;;;;20.28;100.00;99498.53;336291;28;16228;-74
2023/06/23 00:53:15;;;;;;;3.85;2.05;;;;;;;20.25;100.00;99501.38;337734;28;17955;-74
2023/06/23 00:53:27;;;;;;;3.50;2.00;;;;;;;20.20;100.00;99500.88;339783;28;5134;-73
2023/06/23 00:53:39;;;;;;;2.35;2.00;;;;;;;20.18;100.00;99496.66;338872;28;17600;-69
2023/06/23 00:53:52;;;;;;;2.30;2.10;;;;;;;20.19;100.00;99496.56;340289;28;4679;-72
2023/06/23 00:54:04;;;;;;;2.80;2.05;;;;;;;20.21;100.00;99510.47;337542;28;19465;-73
2023/06/23 00:54:16;;;;;;;3.05;2.00;;;;;;;20.24;100.00;99505.00;342194;28;4701;-73
2023/06/23 00:54:29;;;;;;;2.85;1.90;;;;;;;20.22;100.00;99496.34;340267;28;18079;-69
2023/06/23 00:54:41;;;;;;;3.80;1.92;;;;;;;20.08;100.00;99494.75;342349;28;5194;-74
2023/06/23 00:54:53;;;;;;;3.92;1.98;;;;;;;20.13;100.00;99502.31;337040;28;18263;-73
2023/06/23 00:55:06;;;;;;;3.03;1.92;;;;;;;20.01;100.00;99506.69;341245;28;4550;-73
2023/06/23 00:55:23;;;;;;;2.15;1.80;;;;;;;20.06;100.00;99503.69;337964;28;17988;-70
2023/06/23 00:55:38;;;;;;;2.05;1.88;;;;;;;20.11;100.00;99509.50;337298;28;17443;-74
2023/06/23 00:55:50;;;;;;;3.17;2.15;;;;;;;20.10;100.00;99505.16;339816;28;4853;-73
2023/06/23 00:56:03;;;;;;;3.70;2.10;;;;;;;20.15;100.00;99505.66;336001;28;18979;-73
2023/06/23 00:56:21;;;;;;;3.42;1.98;;;;;;;20.19;100.00;99512.41;342768;28;5303;-72
2023/06/23 00:56:37;;;;;;;2.50;1.90;;;;;;;20.20;100.00;99506.16;324294;28;17686;-71
2023/06/23 00:56:50;;;;;;;2.47;1.83;;;;;;;20.22;100.00;99512.19;336341;28;5333;-72
2023/06/23 00:57:07;;;;;;;3.30;1.98;;;;;;;20.25;100.00;99517.22;333767;28;18094;-72
2023/06/23 00:57:19;;;;;;;6.43;2.10;;;;;;;20.23;100.00;99508.56;336646;28;17649;-73
2023/06/23 00:57:33;;;;;;;5.57;2.00;;;;;;;20.25;100.00;99506.66;338554;28;4829;-73
2023/06/23 00:57:47;;;;;;;2.42;1.75;;;;;;;20.25;100.00;99511.09;336983;28;18179;-72
2023/06/23 00:57:59;;;;;;;2.20;1.80;;;;;;;20.23;100.00;99513.00;335793;28;19154;-71
2023/06/23 00:58:11;;;;;;;2.17;1.90;;;;;;;20.33;100.00;99512.19;338195;28;5373;-70
2023/06/23 00:58:23;;;;;;;2.47;1.83;;;;;;;20.21;100.00;99504.38;336984;28;18447;-73
2023/06/23 00:58:37;;;;;;;2.50;1.77;;;;;;;20.17;100.00;99514.31;337320;28;4615;-72
2023/06/23 00:58:50;;;;;;;2.22;1.75;;;;;;;20.25;100.00;99511.94;334508;28;20268;-72
2023/06/23 00:59:02;;;;;;;2.22;1.80;;;;;;;20.18;100.00;99521.25;338562;28;4721;-72
2023/06/23 00:59:16;;;;;;;2.78;2.00;;;;;;;20.22;100.00;99511.31;327246;28;18929;-70
2023/06/23 00:59:28;;;;;;;4.07;2.10;;;;;;;20.21;100.00;99514.94;337744;28;16682;-73
2023/06/23 00:59:44;;;;;;;3.97;1.85;;;;;;;20.19;100.00;99512.41;338579;28;17901;-73
2023/06/23 00:59:59;;;;;;;3.03;1.70;;;;;;;20.05;100.00;99509.94;341530;28;5714;-72
2023/06/23 01:00:17;;;;;;;3.75;1.70;;;;;;;20.09;100.00;99511.41;336315;28;18130;-73
2023/06/23 01:00:29;;;;;;;3.80;1.75;;;;;;;20.12;100.00;99511.16;336977;28;17907;-73
2023/06/23 01:00:41;;;;;;;3.50;1.88;;;;;;;20.11;100.00;99517.41;339495;28;4758;-71
2023/06/23 01:00:56;;;;;;;3.83;1.83;;;;;;;20.10;100.00;99519.22;337144;28;18709;-70
2023/06/23 01:01:10;;;;;;;3.25;1.85;;;;;;;20.08;100.00;99514.97;337041;28;18113;-73
2023/06/23 01:01:23;;;;;;;2.33;1.75;;;;;;;20.05;100.00;99517.88;338066;28;17270;-73